sensor_id;sensor_type;location;lat;lon;timestamp;temperature;humidity
44359;DHT22;30077;52.474;13.326;2023-05-19T00:02:36;10.50;99.90
44359;DHT22;30077;52.474;13.326;2023-05-19T00:07:38;10.50;99.90
44359;DHT22;30077;52.474;13.326;2023-05-19T00:12:40;10.40;99.90
44359;DHT22;30077;52.474;13.326;2023-05-19T00:17:41;10.30;99.90
44359;DHT22;30077;52.474;13.326;2023-05-19T00:22:41;10.30;99.90
44359;DHT22;30077;52.474;13.326;2023-05-19T00:27:44;10.20;99.90
44359;DHT22;30077;52.474;13.326;2023-05-19T00:32:44;10.20;99.90
44359;DHT22;30077;52.474;13.326;2023-05-19T00:37:45;10.20;99.90
44359;DHT22;30077;52.474;13.326;2023-05-19T00:42:45;10.10;99.90
44359;DHT22;30077;52.474;13.326;2023-05-19T00:47:46;10.10;99.90
44359;DHT22;30077;52.474;13.326;2023-05-19T00:52:48;10.00;99.90
44359;DHT22;30077;52.474;13.326;2023-05-19T00:57:48;10.00;99.90
44359;DHT22;30077;52.474;13.326;2023-05-19T01:02:49;10.00;99.90
44359;DHT22;30077;52.474;13.326;2023-05-19T01:07:50;9.90;99.90
44359;DHT22;30077;52.474;13.326;2023-05-19T01:12:52;9.90;99.90
44359;DHT22;30077;52.474;13.326;2023-05-19T01:18:00;9.80;99.90
44359;DHT22;30077;52.474;13.326;2023-05-19T01:33:29;9.80;99.90
44359;DHT22;30077;52.474;13.326;2023-05-19T01:38:33;9.70;99.90
44359;DHT22;30077;52.474;13.326;2023-05-19T01:43:34;9.70;99.90
44359;DHT22;30077;52.474;13.326;2023-05-19T01:48:35;9.70;99.90
44359;DHT22;30077;52.474;13.326;2023-05-19T01:53:36;9.80;99.90
44359;DHT22;30077;52.474;13.326;2023-05-19T01:58:52;9.70;99.90
44359;DHT22;30077;52.474;13.326;2023-05-19T02:04:38;9.70;99.90
44359;DHT22;30077;52.474;13.326;2023-05-19T02:09:57;9.60;99.90
44359;DHT22;30077;52.474;13.326;2023-05-19T02:15:10;9.60;99.90
44359;DHT22;30077;52.474;13.326;2023-05-19T02:20:10;9.60;99.90
44359;DHT22;30077;52.474;13.326;2023-05-19T02:25:11;9.50;99.90
44359;DHT22;30077;52.474;13.326;2023-05-19T02:30:11;9.50;99.90
44359;DHT22;30077;52.474;13.326;2023-05-19T02:35:12;9.50;99.90
44359;DHT22;30077;52.474;13.326;2023-05-19T02:40:13;9.50;99.90
44359;DHT22;30077;52.474;13.326;2023-05-19T02:45:13;9.50;99.90
44359;DHT22;30077;52.474;13.326;2023-05-19T02:50:14;9.40;99.90
44359;DHT22;30077;52.474;13.326;2023-05-19T02:55:14;9.40;99.90
44359;DHT22;30077;52.474;13.326;2023-05-19T03:00:16;9.50;99.90
44359;DHT22;30077;52.474;13.326;2023-05-19T03:05:17;9.50;99.90
44359;DHT22;30077;52.474;13.326;2023-05-19T03:10:19;9.50;99.90
44359;DHT22;30077;52.474;13.326;2023-05-19T03:15:20;10.00;99.90
44359;DHT22;30077;52.474;13.326;2023-05-19T03:20:22;10.00;99.90
44359;DHT22;30077;52.474;13.326;2023-05-19T03:25:23;9.80;99.90
44359;DHT22;30077;52.474;13.326;2023-05-19T03:30:24;9.80;99.90
44359;DHT22;30077;52.474;13.326;2023-05-19T03:35:24;9.80;99.90
44359;DHT22;30077;52.474;13.326;2023-05-19T03:40:25;9.70;99.90
44359;DHT22;30077;52.474;13.326;2023-05-19T03:45:26;9.70;99.90
44359;DHT22;30077;52.474;13.326;2023-05-19T03:50:26;9.70;99.90
44359;DHT22;30077;52.474;13.326;2023-05-19T03:55:28;9.80;99.90
44359;DHT22;30077;52.474;13.326;2023-05-19T04:00:29;9.90;99.90
44359;DHT22;30077;52.474;13.326;2023-05-19T04:05:29;10.10;99.90
44359;DHT22;30077;52.474;13.326;2023-05-19T04:10:30;10.30;99.90
44359;DHT22;30077;52.474;13.326;2023-05-19T04:15:30;10.30;99.90
44359;DHT22;30077;52.474;13.326;2023-05-19T04:20:31;10.50;99.90
44359;DHT22;30077;52.474;13.326;2023-05-19T04:25:31;10.60;99.90
44359;DHT22;30077;52.474;13.326;2023-05-19T04:30:32;10.50;99.90
44359;DHT22;30077;52.474;13.326;2023-05-19T04:35:33;10.60;99.90
44359;DHT22;30077;52.474;13.326;2023-05-19T04:40:34;10.60;99.90
44359;DHT22;30077;52.474;13.326;2023-05-19T04:45:35;10.90;99.90
44359;DHT22;30077;52.474;13.326;2023-05-19T04:50:36;11.00;99.90
44359;DHT22;30077;52.474;13.326;2023-05-19T04:55:37;11.20;99.90
44359;DHT22;30077;52.474;13.326;2023-05-19T05:00:38;11.40;99.90
44359;DHT22;30077;52.474;13.326;2023-05-19T05:05:38;11.60;99.90
44359;DHT22;30077;52.474;13.326;2023-05-19T05:10:39;11.60;99.90
44359;DHT22;30077;52.474;13.326;2023-05-19T05:15:41;11.90;99.90
44359;DHT22;30077;52.474;13.326;2023-05-19T05:20:42;11.80;99.90
44359;DHT22;30077;52.474;13.326;2023-05-19T05:25:43;12.00;99.90
44359;DHT22;30077;52.474;13.326;2023-05-19T05:30:43;12.00;99.90
44359;DHT22;30077;52.474;13.326;2023-05-19T05:35:45;12.10;99.90
44359;DHT22;30077;52.474;13.326;2023-05-19T05:40:45;12.20;99.90
44359;DHT22;30077;52.474;13.326;2023-05-19T05:45:46;12.10;99.90
44359;DHT22;30077;52.474;13.326;2023-05-19T05:50:48;12.00;99.90
44359;DHT22;30077;52.474;13.326;2023-05-19T05:55:49;12.30;99.90
44359;DHT22;30077;52.474;13.326;2023-05-19T06:00:50;12.50;99.90
44359;DHT22;30077;52.474;13.326;2023-05-19T06:05:52;12.60;99.90
44359;DHT22;30077;52.474;13.326;2023-05-19T06:10:53;12.60;99.90
44359;DHT22;30077;52.474;13.326;2023-05-19T06:15:53;12.80;99.90
44359;DHT22;30077;52.474;13.326;2023-05-19T06:20:54;13.20;99.90
44359;DHT22;30077;52.474;13.326;2023-05-19T06:25:54;13.20;99.90
44359;DHT22;30077;52.474;13.326;2023-05-19T06:30:55;13.30;99.90
44359;DHT22;30077;52.474;13.326;2023-05-19T06:35:56;13.40;99.90
44359;DHT22;30077;52.474;13.326;2023-05-19T06:40:57;13.20;99.90
44359;DHT22;30077;52.474;13.326;2023-05-19T06:45:57;13.40;99.90
44359;DHT22;30077;52.474;13.326;2023-05-19T06:50:58;13.50;99.90
44359;DHT22;30077;52.474;13.326;2023-05-19T06:55:58;13.60;99.90
44359;DHT22;30077;52.474;13.326;2023-05-19T07:00:59;13.30;99.90
44359;DHT22;30077;52.474;13.326;2023-05-19T07:05:59;13.40;99.90
44359;DHT22;30077;52.474;13.326;2023-05-19T07:11:00;13.50;99.90
44359;DHT22;30077;52.474;13.326;2023-05-19T07:16:00;13.60;99.90
44359;DHT22;30077;52.474;13.326;2023-05-19T07:21:01;13.90;99.90
44359;DHT22;30077;52.474;13.326;2023-05-19T07:26:01;14.10;99.90
44359;DHT22;30077;52.474;13.326;2023-05-19T07:31:02;14.20;99.90
44359;DHT22;30077;52.474;13.326;2023-05-19T07:36:02;14.30;99.90
44359;DHT22;30077;52.474;13.326;2023-05-19T07:41:03;14.70;99.90
44359;DHT22;30077;52.474;13.326;2023-05-19T07:46:04;15.00;99.90
44359;DHT22;30077;52.474;13.326;2023-05-19T07:51:05;15.50;99.90
44359;DHT22;30077;52.474;13.326;2023-05-19T07:56:09;15.80;99.90
44359;DHT22;30077;52.474;13.326;2023-05-19T08:01:09;16.30;99.90
44359;DHT22;30077;52.474;13.326;2023-05-19T08:06:10;16.10;99.90
44359;DHT22;30077;52.474;13.326;2023-05-19T08:11:10;16.10;99.90
44359;DHT22;30077;52.474;13.326;2023-05-19T08:16:11;16.10;99.90
44359;DHT22;30077;52.474;13.326;2023-05-19T08:21:11;16.30;99.90
44359;DHT22;30077;52.474;13.326;2023-05-19T08:26:12;16.70;99.90
44359;DHT22;30077;52.474;13.326;2023-05-19T08:31:12;16.90;99.90
44359;DHT22;30077;52.474;13.326;2023-05-19T08:36:13;17.20;99.90
44359;DHT22;30077;52.474;13.326;2023-05-19T08:41:13;17.30;99.90
44359;DHT22;30077;52.474;13.326;2023-05-19T08:46:15;17.40;99.90
44359;DHT22;30077;52.474;13.326;2023-05-19T08:56:29;17.60;99.90
44359;DHT22;30077;52.474;13.326;2023-05-19T09:01:30;18.20;98.60
44359;DHT22;30077;52.474;13.326;2023-05-19T09:06:31;19.00;98.00
44359;DHT22;30077;52.474;13.326;2023-05-19T09:11:32;19.20;95.90
44359;DHT22;30077;52.474;13.326;2023-05-19T09:16:34;18.50;95.60
44359;DHT22;30077;52.474;13.326;2023-05-19T09:21:35;17.80;96.20
44359;DHT22;30077;52.474;13.326;2023-05-19T09:26:38;18.50;96.30
44359;DHT22;30077;52.474;13.326;2023-05-19T09:31:47;17.90;96.50
44359;DHT22;30077;52.474;13.326;2023-05-19T09:36:48;17.30;97.30
44359;DHT22;30077;52.474;13.326;2023-05-19T09:41:53;17.60;96.80
44359;DHT22;30077;52.474;13.326;2023-05-19T09:46:54;18.30;96.00
44359;DHT22;30077;52.474;13.326;2023-05-19T09:51:57;18.00;95.20
44359;DHT22;30077;52.474;13.326;2023-05-19T09:57:02;17.70;94.70
44359;DHT22;30077;52.474;13.326;2023-05-19T10:02:03;17.50;95.60
44359;DHT22;30077;52.474;13.326;2023-05-19T10:07:04;17.60;94.80
44359;DHT22;30077;52.474;13.326;2023-05-19T10:12:05;18.00;93.70
44359;DHT22;30077;52.474;13.326;2023-05-19T10:17:07;18.00;94.40
44359;DHT22;30077;52.474;13.326;2023-05-19T10:22:08;18.00;94.40
44359;DHT22;30077;52.474;13.326;2023-05-19T10:27:11;18.10;94.30
44359;DHT22;30077;52.474;13.326;2023-05-19T10:32:16;18.00;93.50
44359;DHT22;30077;52.474;13.326;2023-05-19T10:42:42;18.50;94.60
44359;DHT22;30077;52.474;13.326;2023-05-19T10:47:44;18.30;93.50
44359;DHT22;30077;52.474;13.326;2023-05-19T10:52:52;18.50;93.50
44359;DHT22;30077;52.474;13.326;2023-05-19T10:57:54;18.40;93.30
44359;DHT22;30077;52.474;13.326;2023-05-19T11:03:12;19.50;92.20
44359;DHT22;30077;52.474;13.326;2023-05-19T11:08:12;18.90;92.10
44359;DHT22;30077;52.474;13.326;2023-05-19T11:13:19;19.00;92.20
44359;DHT22;30077;52.474;13.326;2023-05-19T11:18:23;19.50;92.10
44359;DHT22;30077;52.474;13.326;2023-05-19T11:23:24;20.10;91.20
44359;DHT22;30077;52.474;13.326;2023-05-19T11:28:25;20.00;91.00
44359;DHT22;30077;52.474;13.326;2023-05-19T11:33:27;18.70;90.90
44359;DHT22;30077;52.474;13.326;2023-05-19T11:38:28;18.60;91.10
44359;DHT22;30077;52.474;13.326;2023-05-19T11:43:29;18.50;91.60
44359;DHT22;30077;52.474;13.326;2023-05-19T11:48:29;19.10;91.40
44359;DHT22;30077;52.474;13.326;2023-05-19T11:53:30;18.80;91.00
44359;DHT22;30077;52.474;13.326;2023-05-19T11:58:31;18.70;91.50
44359;DHT22;30077;52.474;13.326;2023-05-19T12:03:31;18.90;90.90
44359;DHT22;30077;52.474;13.326;2023-05-19T12:08:32;19.80;90.60
44359;DHT22;30077;52.474;13.326;2023-05-19T12:13:32;20.00;90.00
44359;DHT22;30077;52.474;13.326;2023-05-19T12:18:36;20.40;88.60
44359;DHT22;30077;52.474;13.326;2023-05-19T12:23:37;20.90;87.20
44359;DHT22;30077;52.474;13.326;2023-05-19T12:28:38;20.00;89.30
44359;DHT22;30077;52.474;13.326;2023-05-19T12:33:38;19.70;89.00
44359;DHT22;30077;52.474;13.326;2023-05-19T12:38:39;20.20;87.20
44359;DHT22;30077;52.474;13.326;2023-05-19T12:43:41;19.30;88.50
44359;DHT22;30077;52.474;13.326;2023-05-19T12:48:43;19.50;89.10
44359;DHT22;30077;52.474;13.326;2023-05-19T12:53:44;19.50;89.20
44359;DHT22;30077;52.474;13.326;2023-05-19T12:58:45;20.10;88.60
44359;DHT22;30077;52.474;13.326;2023-05-19T13:03:47;19.60;89.60
44359;DHT22;30077;52.474;13.326;2023-05-19T13:08:47;19.60;88.90
44359;DHT22;30077;52.474;13.326;2023-05-19T13:13:48;20.00;89.80
44359;DHT22;30077;52.474;13.326;2023-05-19T13:18:49;20.40;88.80
44359;DHT22;30077;52.474;13.326;2023-05-19T13:23:50;20.90;88.10
44359;DHT22;30077;52.474;13.326;2023-05-19T13:28:52;20.80;86.80
44359;DHT22;30077;52.474;13.326;2023-05-19T13:33:52;20.60;87.40
44359;DHT22;30077;52.474;13.326;2023-05-19T13:38:53;20.30;87.80
44359;DHT22;30077;52.474;13.326;2023-05-19T13:43:56;20.00;87.20
44359;DHT22;30077;52.474;13.326;2023-05-19T13:48:57;19.80;88.10
44359;DHT22;30077;52.474;13.326;2023-05-19T13:53:57;19.90;88.10
44359;DHT22;30077;52.474;13.326;2023-05-19T13:58:58;19.70;88.60
44359;DHT22;30077;52.474;13.326;2023-05-19T14:03:58;20.00;87.20
44359;DHT22;30077;52.474;13.326;2023-05-19T14:08:59;19.50;89.20
44359;DHT22;30077;52.474;13.326;2023-05-19T14:14:00;19.50;89.60
44359;DHT22;30077;52.474;13.326;2023-05-19T14:19:04;19.50;88.40
44359;DHT22;30077;52.474;13.326;2023-05-19T14:24:05;19.20;89.50
44359;DHT22;30077;52.474;13.326;2023-05-19T14:29:06;19.00;90.00
44359;DHT22;30077;52.474;13.326;2023-05-19T14:34:06;19.50;90.20
44359;DHT22;30077;52.474;13.326;2023-05-19T14:39:07;19.50;90.10
44359;DHT22;30077;52.474;13.326;2023-05-19T14:44:07;19.40;90.30
44359;DHT22;30077;52.474;13.326;2023-05-19T14:49:08;19.70;90.30
44359;DHT22;30077;52.474;13.326;2023-05-19T14:54:08;19.70;89.90
44359;DHT22;30077;52.474;13.326;2023-05-19T14:59:09;19.70;90.10
44359;DHT22;30077;52.474;13.326;2023-05-19T15:04:09;19.90;90.10
44359;DHT22;30077;52.474;13.326;2023-05-19T15:09:10;19.10;90.00
44359;DHT22;30077;52.474;13.326;2023-05-19T15:14:13;18.70;90.60
44359;DHT22;30077;52.474;13.326;2023-05-19T15:19:14;18.60;90.90
44359;DHT22;30077;52.474;13.326;2023-05-19T15:24:14;19.30;90.70
44359;DHT22;30077;52.474;13.326;2023-05-19T15:29:15;18.90;90.80
44359;DHT22;30077;52.474;13.326;2023-05-19T15:34:17;18.40;91.30
44359;DHT22;30077;52.474;13.326;2023-05-19T15:39:17;18.30;91.40
44359;DHT22;30077;52.474;13.326;2023-05-19T15:44:18;18.20;91.70
44359;DHT22;30077;52.474;13.326;2023-05-19T15:49:18;18.10;90.50
44359;DHT22;30077;52.474;13.326;2023-05-19T15:54:19;18.00;91.00
44359;DHT22;30077;52.474;13.326;2023-05-19T15:59:19;18.40;91.40
44359;DHT22;30077;52.474;13.326;2023-05-19T16:04:20;18.30;91.40
44359;DHT22;30077;52.474;13.326;2023-05-19T16:09:20;18.30;91.00
44359;DHT22;30077;52.474;13.326;2023-05-19T16:14:21;18.30;91.20
44359;DHT22;30077;52.474;13.326;2023-05-19T16:19:22;18.40;91.30
44359;DHT22;30077;52.474;13.326;2023-05-19T16:24:23;19.10;91.10
44359;DHT22;30077;52.474;13.326;2023-05-19T16:29:23;19.20;90.50
44359;DHT22;30077;52.474;13.326;2023-05-19T16:34:24;18.50;91.10
44359;DHT22;30077;52.474;13.326;2023-05-19T16:39:24;18.10;91.30
44359;DHT22;30077;52.474;13.326;2023-05-19T16:44:25;18.40;90.60
44359;DHT22;30077;52.474;13.326;2023-05-19T16:49:25;18.70;90.30
44359;DHT22;30077;52.474;13.326;2023-05-19T16:54:27;18.70;90.50
44359;DHT22;30077;52.474;13.326;2023-05-19T16:59:28;18.20;90.50
44359;DHT22;30077;52.474;13.326;2023-05-19T17:04:28;17.60;91.30
44359;DHT22;30077;52.474;13.326;2023-05-19T17:09:28;17.50;91.30
44359;DHT22;30077;52.474;13.326;2023-05-19T17:14:29;17.30;91.90
44359;DHT22;30077;52.474;13.326;2023-05-19T17:19:29;17.20;92.20
44359;DHT22;30077;52.474;13.326;2023-05-19T17:24:30;17.10;92.50
44359;DHT22;30077;52.474;13.326;2023-05-19T17:29:33;17.10;92.80
44359;DHT22;30077;52.474;13.326;2023-05-19T17:34:33;17.20;92.70
44359;DHT22;30077;52.474;13.326;2023-05-19T17:39:34;17.10;92.90
44359;DHT22;30077;52.474;13.326;2023-05-19T17:44:35;17.20;93.00
44359;DHT22;30077;52.474;13.326;2023-05-19T17:49:36;17.20;93.10
44359;DHT22;30077;52.474;13.326;2023-05-19T17:54:39;17.10;93.40
44359;DHT22;30077;52.474;13.326;2023-05-19T17:59:40;17.30;93.50
44359;DHT22;30077;52.474;13.326;2023-05-19T18:04:41;17.20;93.70
44359;DHT22;30077;52.474;13.326;2023-05-19T18:09:44;17.20;93.90
44359;DHT22;30077;52.474;13.326;2023-05-19T18:14:48;17.00;93.70
44359;DHT22;30077;52.474;13.326;2023-05-19T18:19:49;16.80;93.90
44359;DHT22;30077;52.474;13.326;2023-05-19T18:24:50;16.80;93.50
44359;DHT22;30077;52.474;13.326;2023-05-19T18:29:52;16.60;93.90
44359;DHT22;30077;52.474;13.326;2023-05-19T18:34:52;16.40;94.50
44359;DHT22;30077;52.474;13.326;2023-05-19T18:39:53;16.30;94.60
44359;DHT22;30077;52.474;13.326;2023-05-19T18:44:54;16.20;95.00
44359;DHT22;30077;52.474;13.326;2023-05-19T18:49:56;16.40;95.60
44359;DHT22;30077;52.474;13.326;2023-05-19T18:54:56;16.10;95.90
44359;DHT22;30077;52.474;13.326;2023-05-19T18:59:57;15.90;96.60
44359;DHT22;30077;52.474;13.326;2023-05-19T19:04:57;15.80;97.20
44359;DHT22;30077;52.474;13.326;2023-05-19T19:09:58;15.60;97.90
44359;DHT22;30077;52.474;13.326;2023-05-19T19:14:58;15.60;98.50
44359;DHT22;30077;52.474;13.326;2023-05-19T19:19:59;15.50;99.30
44359;DHT22;30077;52.474;13.326;2023-05-19T19:24:59;15.30;99.90
44359;DHT22;30077;52.474;13.326;2023-05-19T19:30:00;15.30;99.90
44359;DHT22;30077;52.474;13.326;2023-05-19T19:35:01;15.20;99.90
44359;DHT22;30077;52.474;13.326;2023-05-19T19:40:01;15.10;99.90
44359;DHT22;30077;52.474;13.326;2023-05-19T19:45:02;15.10;99.90
44359;DHT22;30077;52.474;13.326;2023-05-19T19:50:02;15.00;99.90
44359;DHT22;30077;52.474;13.326;2023-05-19T19:55:05;14.90;99.90
44359;DHT22;30077;52.474;13.326;2023-05-19T20:00:06;14.90;99.90
44359;DHT22;30077;52.474;13.326;2023-05-19T20:05:07;14.80;99.90
44359;DHT22;30077;52.474;13.326;2023-05-19T20:10:08;14.70;99.90
44359;DHT22;30077;52.474;13.326;2023-05-19T20:15:09;14.70;99.90
44359;DHT22;30077;52.474;13.326;2023-05-19T20:20:10;14.70;99.90
44359;DHT22;30077;52.474;13.326;2023-05-19T20:25:11;14.60;99.90
44359;DHT22;30077;52.474;13.326;2023-05-19T20:30:11;14.50;99.90
44359;DHT22;30077;52.474;13.326;2023-05-19T20:35:12;14.50;99.90
44359;DHT22;30077;52.474;13.326;2023-05-19T20:40:12;14.50;99.90
44359;DHT22;30077;52.474;13.326;2023-05-19T20:45:14;14.50;99.90
44359;DHT22;30077;52.474;13.326;2023-05-19T20:50:15;14.50;99.90
44359;DHT22;30077;52.474;13.326;2023-05-19T20:55:16;14.60;99.90
44359;DHT22;30077;52.474;13.326;2023-05-19T21:00:17;14.70;99.90
44359;DHT22;30077;52.474;13.326;2023-05-19T21:05:19;14.60;99.90
44359;DHT22;30077;52.474;13.326;2023-05-19T21:10:19;14.60;99.90
44359;DHT22;30077;52.474;13.326;2023-05-19T21:15:20;14.60;99.90
44359;DHT22;30077;52.474;13.326;2023-05-19T21:20:21;14.30;99.90
44359;DHT22;30077;52.474;13.326;2023-05-19T21:25:21;14.10;99.90
44359;DHT22;30077;52.474;13.326;2023-05-19T21:30:22;14.00;99.90
44359;DHT22;30077;52.474;13.326;2023-05-19T21:35:22;14.00;99.90
44359;DHT22;30077;52.474;13.326;2023-05-19T21:40:23;13.90;99.90
44359;DHT22;30077;52.474;13.326;2023-05-19T21:45:23;13.80;99.90
44359;DHT22;30077;52.474;13.326;2023-05-19T21:50:24;13.80;99.90
44359;DHT22;30077;52.474;13.326;2023-05-19T21:55:24;13.80;99.90
44359;DHT22;30077;52.474;13.326;2023-05-19T22:00:25;13.70;99.90
44359;DHT22;30077;52.474;13.326;2023-05-19T22:05:28;13.70;99.90
44359;DHT22;30077;52.474;13.326;2023-05-19T22:10:28;13.60;99.90
44359;DHT22;30077;52.474;13.326;2023-05-19T22:15:29;13.60;99.90
44359;DHT22;30077;52.474;13.326;2023-05-19T22:20:29;13.40;99.90
44359;DHT22;30077;52.474;13.326;2023-05-19T22:25:31;13.40;99.90
44359;DHT22;30077;52.474;13.326;2023-05-19T22:30:33;13.30;99.90
44359;DHT22;30077;52.474;13.326;2023-05-19T22:35:35;13.30;99.90
44359;DHT22;30077;52.474;13.326;2023-05-19T22:40:36;13.20;99.90
44359;DHT22;30077;52.474;13.326;2023-05-19T22:45:36;13.20;99.90
44359;DHT22;30077;52.474;13.326;2023-05-19T22:50:37;13.10;99.90
44359;DHT22;30077;52.474;13.326;2023-05-19T22:55:37;13.10;99.90
44359;DHT22;30077;52.474;13.326;2023-05-19T23:00:38;13.10;99.90
44359;DHT22;30077;52.474;13.326;2023-05-19T23:05:39;13.00;99.90
44359;DHT22;30077;52.474;13.326;2023-05-19T23:10:39;12.90;99.90
44359;DHT22;30077;52.474;13.326;2023-05-19T23:15:40;12.90;99.90
44359;DHT22;30077;52.474;13.326;2023-05-19T23:20:40;12.80;99.90
44359;DHT22;30077;52.474;13.326;2023-05-19T23:25:41;12.80;99.90
44359;DHT22;30077;52.474;13.326;2023-05-19T23:30:41;12.80;99.90
44359;DHT22;30077;52.474;13.326;2023-05-19T23:35:44;12.70;99.90
44359;DHT22;30077;52.474;13.326;2023-05-19T23:40:44;12.70;99.90
44359;DHT22;30077;52.474;13.326;2023-05-19T23:45:45;12.60;99.90
44359;DHT22;30077;52.474;13.326;2023-05-19T23:50:45;12.60;99.90
44359;DHT22;30077;52.474;13.326;2023-05-19T23:55:46;12.50;99.90
